sensor_id;sensor_type;location;lat;lon;timestamp;P1;durP1;ratioP1;P2;durP2;ratioP2
17921;SDS011;9086;50.966;3.144;2023-12-20T00:01:28;0.20;;;0.20;;
17921;SDS011;9086;50.966;3.144;2023-12-20T00:03:54;0.20;;;0.20;;
17921;SDS011;9086;50.966;3.144;2023-12-20T00:06:20;0.23;;;0.23;;
17921;SDS011;9086;50.966;3.144;2023-12-20T00:08:46;0.30;;;0.30;;
17921;SDS011;9086;50.966;3.144;2023-12-20T00:11:12;0.40;;;0.40;;
17921;SDS011;9086;50.966;3.144;2023-12-20T00:13:38;0.20;;;0.20;;
17921;SDS011;9086;50.966;3.144;2023-12-20T00:16:04;0.30;;;0.30;;
17921;SDS011;9086;50.966;3.144;2023-12-20T00:18:31;0.20;;;0.20;;
17921;SDS011;9086;50.966;3.144;2023-12-20T00:20:56;0.20;;;0.20;;
17921;SDS011;9086;50.966;3.144;2023-12-20T00:23:23;0.20;;;0.20;;
17921;SDS011;9086;50.966;3.144;2023-12-20T00:25:49;0.20;;;0.20;;
17921;SDS011;9086;50.966;3.144;2023-12-20T00:28:15;0.30;;;0.30;;
17921;SDS011;9086;50.966;3.144;2023-12-20T00:30:41;0.20;;;0.20;;
17921;SDS011;9086;50.966;3.144;2023-12-20T00:33:07;0.20;;;0.20;;
17921;SDS011;9086;50.966;3.144;2023-12-20T00:35:33;0.30;;;0.30;;
17921;SDS011;9086;50.966;3.144;2023-12-20T00:37:59;0.20;;;0.20;;
17921;SDS011;9086;50.966;3.144;2023-12-20T00:40:25;0.20;;;0.20;;
17921;SDS011;9086;50.966;3.144;2023-12-20T00:42:51;0.20;;;0.20;;
17921;SDS011;9086;50.966;3.144;2023-12-20T00:45:17;0.10;;;0.10;;
17921;SDS011;9086;50.966;3.144;2023-12-20T00:47:43;0.20;;;0.20;;
17921;SDS011;9086;50.966;3.144;2023-12-20T00:50:09;0.27;;;0.27;;
17921;SDS011;9086;50.966;3.144;2023-12-20T00:52:35;0.30;;;0.30;;
17921;SDS011;9086;50.966;3.144;2023-12-20T00:55:02;0.20;;;0.20;;
17921;SDS011;9086;50.966;3.144;2023-12-20T00:57:28;0.30;;;0.30;;
17921;SDS011;9086;50.966;3.144;2023-12-20T00:59:56;0.20;;;0.20;;
17921;SDS011;9086;50.966;3.144;2023-12-20T01:02:21;0.27;;;0.27;;
17921;SDS011;9086;50.966;3.144;2023-12-20T01:04:47;0.20;;;0.20;;
17921;SDS011;9086;50.966;3.144;2023-12-20T01:07:13;0.30;;;0.30;;
17921;SDS011;9086;50.966;3.144;2023-12-20T01:09:39;0.30;;;0.30;;
17921;SDS011;9086;50.966;3.144;2023-12-20T01:12:05;0.30;;;0.30;;
17921;SDS011;9086;50.966;3.144;2023-12-20T01:14:32;0.23;;;0.23;;
17921;SDS011;9086;50.966;3.144;2023-12-20T01:16:58;1.23;;;0.73;;
17921;SDS011;9086;50.966;3.144;2023-12-20T01:19:24;0.20;;;0.20;;
17921;SDS011;9086;50.966;3.144;2023-12-20T01:21:50;0.20;;;0.20;;
17921;SDS011;9086;50.966;3.144;2023-12-20T01:24:16;0.30;;;0.30;;
17921;SDS011;9086;50.966;3.144;2023-12-20T01:26:42;0.23;;;0.23;;
17921;SDS011;9086;50.966;3.144;2023-12-20T01:29:08;0.30;;;0.30;;
17921;SDS011;9086;50.966;3.144;2023-12-20T01:31:34;0.20;;;0.20;;
17921;SDS011;9086;50.966;3.144;2023-12-20T01:34:00;1.03;;;0.73;;
17921;SDS011;9086;50.966;3.144;2023-12-20T01:36:26;0.30;;;0.30;;
17921;SDS011;9086;50.966;3.144;2023-12-20T01:38:52;0.20;;;0.20;;
17921;SDS011;9086;50.966;3.144;2023-12-20T01:41:18;0.20;;;0.20;;
17921;SDS011;9086;50.966;3.144;2023-12-20T01:43:44;0.20;;;0.20;;
17921;SDS011;9086;50.966;3.144;2023-12-20T01:46:10;0.10;;;0.10;;
17921;SDS011;9086;50.966;3.144;2023-12-20T01:48:37;0.20;;;0.20;;
17921;SDS011;9086;50.966;3.144;2023-12-20T01:51:03;0.20;;;0.20;;
17921;SDS011;9086;50.966;3.144;2023-12-20T01:53:30;0.20;;;0.20;;
17921;SDS011;9086;50.966;3.144;2023-12-20T01:55:57;0.90;;;0.90;;
17921;SDS011;9086;50.966;3.144;2023-12-20T01:58:24;1.40;;;0.50;;
17921;SDS011;9086;50.966;3.144;2023-12-20T02:00:51;0.20;;;0.20;;
17921;SDS011;9086;50.966;3.144;2023-12-20T02:03:17;0.27;;;0.27;;
17921;SDS011;9086;50.966;3.144;2023-12-20T02:05:43;1.27;;;0.57;;
17921;SDS011;9086;50.966;3.144;2023-12-20T02:08:10;0.20;;;0.20;;
17921;SDS011;9086;50.966;3.144;2023-12-20T02:10:36;0.10;;;0.10;;
17921;SDS011;9086;50.966;3.144;2023-12-20T02:13:03;0.20;;;0.20;;
17921;SDS011;9086;50.966;3.144;2023-12-20T02:15:29;0.20;;;0.20;;
17921;SDS011;9086;50.966;3.144;2023-12-20T02:17:57;0.20;;;0.20;;
17921;SDS011;9086;50.966;3.144;2023-12-20T02:20:23;0.10;;;0.10;;
17921;SDS011;9086;50.966;3.144;2023-12-20T02:22:49;0.20;;;0.20;;
17921;SDS011;9086;50.966;3.144;2023-12-20T02:25:15;0.10;;;0.10;;
17921;SDS011;9086;50.966;3.144;2023-12-20T02:27:41;0.97;;;0.97;;
17921;SDS011;9086;50.966;3.144;2023-12-20T02:30:07;0.10;;;0.10;;
17921;SDS011;9086;50.966;3.144;2023-12-20T02:32:33;0.20;;;0.20;;
17921;SDS011;9086;50.966;3.144;2023-12-20T02:35:00;0.10;;;0.10;;
17921;SDS011;9086;50.966;3.144;2023-12-20T02:37:26;0.10;;;0.10;;
17921;SDS011;9086;50.966;3.144;2023-12-20T02:39:52;0.10;;;0.10;;
17921;SDS011;9086;50.966;3.144;2023-12-20T02:42:18;0.37;;;0.37;;
17921;SDS011;9086;50.966;3.144;2023-12-20T02:44:44;0.20;;;0.20;;
17921;SDS011;9086;50.966;3.144;2023-12-20T02:47:10;0.20;;;0.20;;
17921;SDS011;9086;50.966;3.144;2023-12-20T02:49:36;0.10;;;0.10;;
17921;SDS011;9086;50.966;3.144;2023-12-20T02:52:02;0.10;;;0.10;;
17921;SDS011;9086;50.966;3.144;2023-12-20T02:54:28;0.10;;;0.10;;
17921;SDS011;9086;50.966;3.144;2023-12-20T02:56:54;0.10;;;0.10;;
17921;SDS011;9086;50.966;3.144;2023-12-20T02:59:20;0.10;;;0.10;;
17921;SDS011;9086;50.966;3.144;2023-12-20T03:01:46;0.10;;;0.10;;
17921;SDS011;9086;50.966;3.144;2023-12-20T03:04:12;0.10;;;0.10;;
17921;SDS011;9086;50.966;3.144;2023-12-20T03:06:38;0.10;;;0.10;;
17921;SDS011;9086;50.966;3.144;2023-12-20T03:09:04;0.10;;;0.10;;
17921;SDS011;9086;50.966;3.144;2023-12-20T03:11:30;0.10;;;0.10;;
17921;SDS011;9086;50.966;3.144;2023-12-20T03:13:56;0.20;;;0.20;;
17921;SDS011;9086;50.966;3.144;2023-12-20T03:16:23;0.10;;;0.10;;
17921;SDS011;9086;50.966;3.144;2023-12-20T03:18:49;0.10;;;0.10;;
17921;SDS011;9086;50.966;3.144;2023-12-20T03:21:15;2.70;;;1.93;;
17921;SDS011;9086;50.966;3.144;2023-12-20T03:23:41;0.10;;;0.10;;
17921;SDS011;9086;50.966;3.144;2023-12-20T03:26:08;0.50;;;0.50;;
17921;SDS011;9086;50.966;3.144;2023-12-20T03:28:34;0.10;;;0.10;;
17921;SDS011;9086;50.966;3.144;2023-12-20T03:31:00;0.20;;;0.20;;
17921;SDS011;9086;50.966;3.144;2023-12-20T03:33:27;0.10;;;0.10;;
17921;SDS011;9086;50.966;3.144;2023-12-20T03:35:53;0.20;;;0.20;;
17921;SDS011;9086;50.966;3.144;2023-12-20T03:38:20;0.10;;;0.10;;
17921;SDS011;9086;50.966;3.144;2023-12-20T03:40:46;2.27;;;2.10;;
17921;SDS011;9086;50.966;3.144;2023-12-20T03:43:12;0.47;;;0.47;;
17921;SDS011;9086;50.966;3.144;2023-12-20T03:45:38;0.30;;;0.30;;
17921;SDS011;9086;50.966;3.144;2023-12-20T03:48:04;0.20;;;0.20;;
17921;SDS011;9086;50.966;3.144;2023-12-20T03:50:30;0.10;;;0.10;;
17921;SDS011;9086;50.966;3.144;2023-12-20T03:52:56;0.20;;;0.20;;
17921;SDS011;9086;50.966;3.144;2023-12-20T03:55:22;0.20;;;0.20;;
17921;SDS011;9086;50.966;3.144;2023-12-20T03:57:48;0.30;;;0.30;;
17921;SDS011;9086;50.966;3.144;2023-12-20T04:00:15;0.20;;;0.20;;
17921;SDS011;9086;50.966;3.144;2023-12-20T04:02:41;0.30;;;0.30;;
17921;SDS011;9086;50.966;3.144;2023-12-20T04:05:08;0.30;;;0.30;;
17921;SDS011;9086;50.966;3.144;2023-12-20T04:07:34;0.20;;;0.20;;
17921;SDS011;9086;50.966;3.144;2023-12-20T04:10:00;0.30;;;0.30;;
17921;SDS011;9086;50.966;3.144;2023-12-20T04:12:29;0.20;;;0.20;;
17921;SDS011;9086;50.966;3.144;2023-12-20T04:14:56;0.20;;;0.20;;
17921;SDS011;9086;50.966;3.144;2023-12-20T04:17:22;0.40;;;0.40;;
17921;SDS011;9086;50.966;3.144;2023-12-20T04:19:48;0.50;;;0.50;;
17921;SDS011;9086;50.966;3.144;2023-12-20T04:22:15;0.47;;;0.47;;
17921;SDS011;9086;50.966;3.144;2023-12-20T04:24:41;0.40;;;0.40;;
17921;SDS011;9086;50.966;3.144;2023-12-20T04:27:10;0.30;;;0.30;;
17921;SDS011;9086;50.966;3.144;2023-12-20T04:29:36;0.30;;;0.30;;
17921;SDS011;9086;50.966;3.144;2023-12-20T04:32:02;0.30;;;0.30;;
17921;SDS011;9086;50.966;3.144;2023-12-20T04:34:28;0.30;;;0.30;;
17921;SDS011;9086;50.966;3.144;2023-12-20T04:36:54;0.30;;;0.30;;
17921;SDS011;9086;50.966;3.144;2023-12-20T04:39:20;0.20;;;0.20;;
17921;SDS011;9086;50.966;3.144;2023-12-20T04:41:46;0.40;;;0.40;;
17921;SDS011;9086;50.966;3.144;2023-12-20T04:44:13;0.30;;;0.30;;
17921;SDS011;9086;50.966;3.144;2023-12-20T04:46:39;0.33;;;0.33;;
17921;SDS011;9086;50.966;3.144;2023-12-20T04:49:05;0.37;;;0.37;;
17921;SDS011;9086;50.966;3.144;2023-12-20T04:51:34;0.30;;;0.30;;
17921;SDS011;9086;50.966;3.144;2023-12-20T04:54:01;0.50;;;0.50;;
17921;SDS011;9086;50.966;3.144;2023-12-20T04:56:27;0.40;;;0.40;;
17921;SDS011;9086;50.966;3.144;2023-12-20T04:58:53;0.30;;;0.30;;
17921;SDS011;9086;50.966;3.144;2023-12-20T05:01:19;0.83;;;0.67;;
17921;SDS011;9086;50.966;3.144;2023-12-20T05:03:45;0.37;;;0.37;;
17921;SDS011;9086;50.966;3.144;2023-12-20T05:06:11;0.30;;;0.30;;
17921;SDS011;9086;50.966;3.144;2023-12-20T05:08:37;0.20;;;0.20;;
17921;SDS011;9086;50.966;3.144;2023-12-20T05:11:03;0.30;;;0.30;;
17921;SDS011;9086;50.966;3.144;2023-12-20T05:13:30;0.20;;;0.20;;
17921;SDS011;9086;50.966;3.144;2023-12-20T05:15:56;0.30;;;0.30;;
17921;SDS011;9086;50.966;3.144;2023-12-20T05:18:22;0.30;;;0.30;;
17921;SDS011;9086;50.966;3.144;2023-12-20T05:20:48;0.30;;;0.30;;
17921;SDS011;9086;50.966;3.144;2023-12-20T05:23:14;0.30;;;0.30;;
17921;SDS011;9086;50.966;3.144;2023-12-20T05:25:40;0.30;;;0.30;;
17921;SDS011;9086;50.966;3.144;2023-12-20T05:28:06;0.40;;;0.40;;
17921;SDS011;9086;50.966;3.144;2023-12-20T05:30:32;0.30;;;0.30;;
17921;SDS011;9086;50.966;3.144;2023-12-20T05:32:59;0.30;;;0.30;;
17921;SDS011;9086;50.966;3.144;2023-12-20T05:35:25;0.40;;;0.40;;
17921;SDS011;9086;50.966;3.144;2023-12-20T05:37:51;0.20;;;0.20;;
17921;SDS011;9086;50.966;3.144;2023-12-20T05:40:17;0.90;;;0.90;;
17921;SDS011;9086;50.966;3.144;2023-12-20T05:42:43;1.30;;;1.30;;
17921;SDS011;9086;50.966;3.144;2023-12-20T05:45:09;0.40;;;0.40;;
17921;SDS011;9086;50.966;3.144;2023-12-20T05:47:36;0.60;;;0.60;;
17921;SDS011;9086;50.966;3.144;2023-12-20T05:50:02;0.50;;;0.50;;
17921;SDS011;9086;50.966;3.144;2023-12-20T05:52:29;0.43;;;0.43;;
17921;SDS011;9086;50.966;3.144;2023-12-20T05:54:55;0.70;;;0.67;;
17921;SDS011;9086;50.966;3.144;2023-12-20T05:57:23;0.80;;;0.80;;
17921;SDS011;9086;50.966;3.144;2023-12-20T05:59:49;0.40;;;0.40;;
17921;SDS011;9086;50.966;3.144;2023-12-20T06:02:15;0.40;;;0.40;;
17921;SDS011;9086;50.966;3.144;2023-12-20T06:04:44;0.93;;;0.93;;
17921;SDS011;9086;50.966;3.144;2023-12-20T06:07:13;1.13;;;1.13;;
17921;SDS011;9086;50.966;3.144;2023-12-20T06:09:39;0.70;;;0.70;;
17921;SDS011;9086;50.966;3.144;2023-12-20T06:12:06;2.57;;;0.93;;
17921;SDS011;9086;50.966;3.144;2023-12-20T06:14:33;0.47;;;0.47;;
17921;SDS011;9086;50.966;3.144;2023-12-20T06:17:00;0.30;;;0.30;;
17921;SDS011;9086;50.966;3.144;2023-12-20T06:19:28;0.40;;;0.40;;
17921;SDS011;9086;50.966;3.144;2023-12-20T06:21:55;0.30;;;0.30;;
17921;SDS011;9086;50.966;3.144;2023-12-20T06:24:21;0.30;;;0.30;;
17921;SDS011;9086;50.966;3.144;2023-12-20T06:26:47;0.40;;;0.40;;
17921;SDS011;9086;50.966;3.144;2023-12-20T06:29:13;0.50;;;0.50;;
17921;SDS011;9086;50.966;3.144;2023-12-20T06:31:39;0.40;;;0.40;;
17921;SDS011;9086;50.966;3.144;2023-12-20T06:34:05;0.40;;;0.40;;
17921;SDS011;9086;50.966;3.144;2023-12-20T06:36:31;0.50;;;0.50;;
17921;SDS011;9086;50.966;3.144;2023-12-20T06:38:57;0.23;;;0.23;;
17921;SDS011;9086;50.966;3.144;2023-12-20T06:41:23;0.40;;;0.40;;
17921;SDS011;9086;50.966;3.144;2023-12-20T06:43:49;0.60;;;0.60;;
17921;SDS011;9086;50.966;3.144;2023-12-20T06:46:16;0.50;;;0.50;;
17921;SDS011;9086;50.966;3.144;2023-12-20T06:48:42;0.70;;;0.70;;
17921;SDS011;9086;50.966;3.144;2023-12-20T06:51:11;0.50;;;0.50;;
17921;SDS011;9086;50.966;3.144;2023-12-20T06:53:38;0.40;;;0.40;;
17921;SDS011;9086;50.966;3.144;2023-12-20T06:56:04;0.60;;;0.60;;
17921;SDS011;9086;50.966;3.144;2023-12-20T06:58:30;0.93;;;0.93;;
17921;SDS011;9086;50.966;3.144;2023-12-20T07:00:56;0.50;;;0.50;;
17921;SDS011;9086;50.966;3.144;2023-12-20T07:03:22;0.50;;;0.50;;
17921;SDS011;9086;50.966;3.144;2023-12-20T07:05:48;0.47;;;0.47;;
17921;SDS011;9086;50.966;3.144;2023-12-20T07:08:14;0.50;;;0.50;;
17921;SDS011;9086;50.966;3.144;2023-12-20T07:10:40;0.70;;;0.70;;
17921;SDS011;9086;50.966;3.144;2023-12-20T07:13:06;0.83;;;0.83;;
17921;SDS011;9086;50.966;3.144;2023-12-20T07:15:33;0.50;;;0.50;;
17921;SDS011;9086;50.966;3.144;2023-12-20T07:17:59;0.60;;;0.60;;
17921;SDS011;9086;50.966;3.144;2023-12-20T07:20:25;0.60;;;0.60;;
17921;SDS011;9086;50.966;3.144;2023-12-20T07:22:51;4.00;;;1.40;;
17921;SDS011;9086;50.966;3.144;2023-12-20T07:25:17;0.60;;;0.60;;
17921;SDS011;9086;50.966;3.144;2023-12-20T07:27:45;0.60;;;0.60;;
17921;SDS011;9086;50.966;3.144;2023-12-20T07:30:11;0.60;;;0.60;;
17921;SDS011;9086;50.966;3.144;2023-12-20T07:32:37;0.60;;;0.60;;
17921;SDS011;9086;50.966;3.144;2023-12-20T07:35:03;0.63;;;0.63;;
17921;SDS011;9086;50.966;3.144;2023-12-20T07:37:30;0.97;;;0.77;;
17921;SDS011;9086;50.966;3.144;2023-12-20T07:39:56;1.40;;;1.40;;
17921;SDS011;9086;50.966;3.144;2023-12-20T07:42:22;0.70;;;0.70;;
17921;SDS011;9086;50.966;3.144;2023-12-20T07:44:48;2.77;;;2.60;;
17921;SDS011;9086;50.966;3.144;2023-12-20T07:47:14;0.70;;;0.70;;
17921;SDS011;9086;50.966;3.144;2023-12-20T07:49:46;0.70;;;0.70;;
17921;SDS011;9086;50.966;3.144;2023-12-20T07:52:12;0.80;;;0.80;;
17921;SDS011;9086;50.966;3.144;2023-12-20T07:54:38;1.27;;;1.27;;
17921;SDS011;9086;50.966;3.144;2023-12-20T07:57:04;1.00;;;1.00;;
17921;SDS011;9086;50.966;3.144;2023-12-20T07:59:30;1.10;;;1.10;;
17921;SDS011;9086;50.966;3.144;2023-12-20T08:01:56;1.93;;;1.93;;
17921;SDS011;9086;50.966;3.144;2023-12-20T08:04:22;1.13;;;1.13;;
17921;SDS011;9086;50.966;3.144;2023-12-20T08:06:48;0.90;;;0.90;;
17921;SDS011;9086;50.966;3.144;2023-12-20T08:09:14;1.00;;;1.00;;
17921;SDS011;9086;50.966;3.144;2023-12-20T08:11:44;10.50;;;2.10;;
17921;SDS011;9086;50.966;3.144;2023-12-20T08:14:13;1.30;;;1.30;;
17921;SDS011;9086;50.966;3.144;2023-12-20T08:16:39;1.30;;;1.30;;
17921;SDS011;9086;50.966;3.144;2023-12-20T08:19:06;1.30;;;1.30;;
17921;SDS011;9086;50.966;3.144;2023-12-20T08:21:32;2.10;;;2.10;;
17921;SDS011;9086;50.966;3.144;2023-12-20T08:23:58;2.07;;;2.07;;
17921;SDS011;9086;50.966;3.144;2023-12-20T08:26:25;1.37;;;1.37;;
17921;SDS011;9086;50.966;3.144;2023-12-20T08:28:51;1.50;;;1.50;;
17921;SDS011;9086;50.966;3.144;2023-12-20T08:31:18;1.63;;;1.63;;
17921;SDS011;9086;50.966;3.144;2023-12-20T08:33:44;1.70;;;1.70;;
17921;SDS011;9086;50.966;3.144;2023-12-20T08:36:11;1.67;;;1.67;;
17921;SDS011;9086;50.966;3.144;2023-12-20T08:38:37;2.63;;;2.43;;
17921;SDS011;9086;50.966;3.144;2023-12-20T08:41:03;1.43;;;1.43;;
17921;SDS011;9086;50.966;3.144;2023-12-20T08:43:37;1.87;;;1.87;;
17921;SDS011;9086;50.966;3.144;2023-12-20T08:46:05;2.63;;;2.63;;
17921;SDS011;9086;50.966;3.144;2023-12-20T08:48:31;2.33;;;2.23;;
17921;SDS011;9086;50.966;3.144;2023-12-20T08:50:57;2.40;;;2.40;;
17921;SDS011;9086;50.966;3.144;2023-12-20T08:53:23;2.17;;;2.17;;
17921;SDS011;9086;50.966;3.144;2023-12-20T08:55:50;2.70;;;2.70;;
17921;SDS011;9086;50.966;3.144;2023-12-20T08:58:16;2.37;;;2.37;;
17921;SDS011;9086;50.966;3.144;2023-12-20T09:00:42;2.00;;;2.00;;
17921;SDS011;9086;50.966;3.144;2023-12-20T09:03:09;2.17;;;2.17;;
17921;SDS011;9086;50.966;3.144;2023-12-20T09:05:35;1.70;;;1.70;;
17921;SDS011;9086;50.966;3.144;2023-12-20T09:08:01;1.90;;;1.90;;
17921;SDS011;9086;50.966;3.144;2023-12-20T09:10:27;1.80;;;1.77;;
17921;SDS011;9086;50.966;3.144;2023-12-20T09:12:53;1.93;;;1.93;;
17921;SDS011;9086;50.966;3.144;2023-12-20T09:15:23;1.80;;;1.70;;
17921;SDS011;9086;50.966;3.144;2023-12-20T09:17:49;1.77;;;1.77;;
17921;SDS011;9086;50.966;3.144;2023-12-20T09:20:15;1.97;;;1.97;;
17921;SDS011;9086;50.966;3.144;2023-12-20T09:22:41;2.10;;;2.10;;
17921;SDS011;9086;50.966;3.144;2023-12-20T09:25:09;2.17;;;2.17;;
17921;SDS011;9086;50.966;3.144;2023-12-20T09:27:35;2.00;;;2.00;;
17921;SDS011;9086;50.966;3.144;2023-12-20T09:30:01;1.90;;;1.80;;
17921;SDS011;9086;50.966;3.144;2023-12-20T09:32:27;2.60;;;2.50;;
17921;SDS011;9086;50.966;3.144;2023-12-20T09:34:54;2.30;;;2.10;;
17921;SDS011;9086;50.966;3.144;2023-12-20T09:37:20;2.00;;;2.00;;
17921;SDS011;9086;50.966;3.144;2023-12-20T09:39:46;2.20;;;2.20;;
17921;SDS011;9086;50.966;3.144;2023-12-20T09:42:13;7.53;;;6.97;;
17921;SDS011;9086;50.966;3.144;2023-12-20T09:44:43;1.83;;;1.83;;
17921;SDS011;9086;50.966;3.144;2023-12-20T09:47:10;1.73;;;1.73;;
17921;SDS011;9086;50.966;3.144;2023-12-20T09:49:36;3.07;;;2.07;;
17921;SDS011;9086;50.966;3.144;2023-12-20T09:52:02;2.00;;;2.00;;
17921;SDS011;9086;50.966;3.144;2023-12-20T09:54:30;2.77;;;2.67;;
17921;SDS011;9086;50.966;3.144;2023-12-20T09:56:56;1.53;;;1.53;;
17921;SDS011;9086;50.966;3.144;2023-12-20T09:59:22;2.73;;;2.53;;
17921;SDS011;9086;50.966;3.144;2023-12-20T10:01:48;1.60;;;1.60;;
17921;SDS011;9086;50.966;3.144;2023-12-20T10:04:16;1.80;;;1.80;;
17921;SDS011;9086;50.966;3.144;2023-12-20T10:06:42;1.87;;;1.77;;
17921;SDS011;9086;50.966;3.144;2023-12-20T10:09:09;1.77;;;1.77;;
17921;SDS011;9086;50.966;3.144;2023-12-20T10:11:38;6.10;;;2.30;;
17921;SDS011;9086;50.966;3.144;2023-12-20T10:14:14;1.60;;;1.50;;
17921;SDS011;9086;50.966;3.144;2023-12-20T10:16:40;1.10;;;1.10;;
17921;SDS011;9086;50.966;3.144;2023-12-20T10:19:06;1.43;;;1.43;;
17921;SDS011;9086;50.966;3.144;2023-12-20T10:21:33;1.47;;;1.37;;
17921;SDS011;9086;50.966;3.144;2023-12-20T10:23:59;1.30;;;1.30;;
17921;SDS011;9086;50.966;3.144;2023-12-20T10:26:26;0.90;;;0.90;;
17921;SDS011;9086;50.966;3.144;2023-12-20T10:28:53;1.20;;;1.20;;
17921;SDS011;9086;50.966;3.144;2023-12-20T10:31:32;1.07;;;1.07;;
17921;SDS011;9086;50.966;3.144;2023-12-20T10:34:00;0.70;;;0.70;;
17921;SDS011;9086;50.966;3.144;2023-12-20T10:36:35;0.60;;;0.60;;
17921;SDS011;9086;50.966;3.144;2023-12-20T10:39:02;1.27;;;1.27;;
17921;SDS011;9086;50.966;3.144;2023-12-20T10:41:29;1.10;;;0.60;;
17921;SDS011;9086;50.966;3.144;2023-12-20T10:43:59;0.90;;;0.90;;
17921;SDS011;9086;50.966;3.144;2023-12-20T10:46:26;0.60;;;0.60;;
17921;SDS011;9086;50.966;3.144;2023-12-20T10:48:53;0.97;;;0.97;;
17921;SDS011;9086;50.966;3.144;2023-12-20T10:51:20;1.30;;;0.93;;
17921;SDS011;9086;50.966;3.144;2023-12-20T10:53:47;1.13;;;1.13;;
17921;SDS011;9086;50.966;3.144;2023-12-20T10:56:15;0.40;;;0.40;;
17921;SDS011;9086;50.966;3.144;2023-12-20T10:58:42;0.70;;;0.70;;
17921;SDS011;9086;50.966;3.144;2023-12-20T11:01:16;6.53;;;1.83;;
17921;SDS011;9086;50.966;3.144;2023-12-20T11:03:50;4.63;;;1.00;;
17921;SDS011;9086;50.966;3.144;2023-12-20T11:11:23;0.63;;;0.33;;
17921;SDS011;9086;50.966;3.144;2023-12-20T11:16:20;2.63;;;0.80;;
17921;SDS011;9086;50.966;3.144;2023-12-20T11:18:46;0.40;;;0.40;;
17921;SDS011;9086;50.966;3.144;2023-12-20T11:21:15;0.87;;;0.87;;
17921;SDS011;9086;50.966;3.144;2023-12-20T11:23:42;13.40;;;1.43;;
17921;SDS011;9086;50.966;3.144;2023-12-20T11:26:08;3.60;;;0.53;;
17921;SDS011;9086;50.966;3.144;2023-12-20T11:28:34;0.30;;;0.30;;
17921;SDS011;9086;50.966;3.144;2023-12-20T11:31:01;0.40;;;0.40;;
17921;SDS011;9086;50.966;3.144;2023-12-20T11:33:36;0.27;;;0.27;;
17921;SDS011;9086;50.966;3.144;2023-12-20T11:36:06;1.40;;;0.57;;
17921;SDS011;9086;50.966;3.144;2023-12-20T11:38:38;0.30;;;0.30;;
17921;SDS011;9086;50.966;3.144;2023-12-20T11:41:07;0.40;;;0.40;;
17921;SDS011;9086;50.966;3.144;2023-12-20T11:43:37;0.30;;;0.30;;
17921;SDS011;9086;50.966;3.144;2023-12-20T11:46:06;1.50;;;1.37;;
17921;SDS011;9086;50.966;3.144;2023-12-20T11:48:39;0.67;;;0.60;;
17921;SDS011;9086;50.966;3.144;2023-12-20T11:51:09;1.50;;;1.07;;
17921;SDS011;9086;50.966;3.144;2023-12-20T11:53:35;1.43;;;0.90;;
17921;SDS011;9086;50.966;3.144;2023-12-20T11:56:02;2.20;;;0.70;;
17921;SDS011;9086;50.966;3.144;2023-12-20T11:58:28;0.47;;;0.47;;
17921;SDS011;9086;50.966;3.144;2023-12-20T12:00:55;0.70;;;0.70;;
17921;SDS011;9086;50.966;3.144;2023-12-20T12:03:21;0.50;;;0.50;;
17921;SDS011;9086;50.966;3.144;2023-12-20T12:05:49;0.93;;;0.93;;
17921;SDS011;9086;50.966;3.144;2023-12-20T12:08:22;0.60;;;0.60;;
17921;SDS011;9086;50.966;3.144;2023-12-20T12:10:48;2.90;;;1.20;;
17921;SDS011;9086;50.966;3.144;2023-12-20T12:13:15;0.30;;;0.30;;
17921;SDS011;9086;50.966;3.144;2023-12-20T12:15:41;0.30;;;0.30;;
17921;SDS011;9086;50.966;3.144;2023-12-20T12:18:08;0.40;;;0.40;;
17921;SDS011;9086;50.966;3.144;2023-12-20T12:20:35;0.20;;;0.20;;
17921;SDS011;9086;50.966;3.144;2023-12-20T12:23:02;1.00;;;0.60;;
17921;SDS011;9086;50.966;3.144;2023-12-20T12:25:31;0.90;;;0.30;;
17921;SDS011;9086;50.966;3.144;2023-12-20T12:27:58;0.20;;;0.20;;
17921;SDS011;9086;50.966;3.144;2023-12-20T12:30:25;1.70;;;0.53;;
17921;SDS011;9086;50.966;3.144;2023-12-20T12:32:51;0.40;;;0.40;;
17921;SDS011;9086;50.966;3.144;2023-12-20T12:35:18;0.10;;;0.10;;
17921;SDS011;9086;50.966;3.144;2023-12-20T12:37:44;0.57;;;0.20;;
17921;SDS011;9086;50.966;3.144;2023-12-20T12:40:11;0.20;;;0.20;;
17921;SDS011;9086;50.966;3.144;2023-12-20T12:42:38;0.87;;;0.47;;
17921;SDS011;9086;50.966;3.144;2023-12-20T12:45:05;0.37;;;0.37;;
17921;SDS011;9086;50.966;3.144;2023-12-20T12:47:31;1.80;;;0.57;;
17921;SDS011;9086;50.966;3.144;2023-12-20T12:49:57;0.10;;;0.10;;
17921;SDS011;9086;50.966;3.144;2023-12-20T12:52:23;0.20;;;0.20;;
17921;SDS011;9086;50.966;3.144;2023-12-20T12:54:49;2.03;;;0.97;;
17921;SDS011;9086;50.966;3.144;2023-12-20T12:57:15;0.20;;;0.20;;
17921;SDS011;9086;50.966;3.144;2023-12-20T12:59:42;0.30;;;0.30;;
17921;SDS011;9086;50.966;3.144;2023-12-20T13:02:10;1.60;;;0.93;;
17921;SDS011;9086;50.966;3.144;2023-12-20T13:04:37;0.30;;;0.30;;
17921;SDS011;9086;50.966;3.144;2023-12-20T13:07:03;11.70;;;2.17;;
17921;SDS011;9086;50.966;3.144;2023-12-20T13:09:36;0.10;;;0.10;;
17921;SDS011;9086;50.966;3.144;2023-12-20T13:12:02;0.20;;;0.20;;
17921;SDS011;9086;50.966;3.144;2023-12-20T13:14:29;1.77;;;0.20;;
17921;SDS011;9086;50.966;3.144;2023-12-20T13:16:55;0.50;;;0.50;;
17921;SDS011;9086;50.966;3.144;2023-12-20T13:19:21;0.10;;;0.10;;
17921;SDS011;9086;50.966;3.144;2023-12-20T13:21:47;0.77;;;0.20;;
17921;SDS011;9086;50.966;3.144;2023-12-20T13:24:13;0.10;;;0.10;;
17921;SDS011;9086;50.966;3.144;2023-12-20T13:26:39;0.10;;;0.10;;
17921;SDS011;9086;50.966;3.144;2023-12-20T13:29:05;0.37;;;0.27;;
17921;SDS011;9086;50.966;3.144;2023-12-20T13:31:31;0.10;;;0.10;;
17921;SDS011;9086;50.966;3.144;2023-12-20T13:33:57;0.00;;;0.00;;
17921;SDS011;9086;50.966;3.144;2023-12-20T13:36:24;0.03;;;0.03;;
17921;SDS011;9086;50.966;3.144;2023-12-20T13:38:50;6.80;;;0.90;;
17921;SDS011;9086;50.966;3.144;2023-12-20T13:41:24;0.00;;;0.00;;
17921;SDS011;9086;50.966;3.144;2023-12-20T13:43:50;1.17;;;0.20;;
17921;SDS011;9086;50.966;3.144;2023-12-20T13:46:17;0.10;;;0.10;;
17921;SDS011;9086;50.966;3.144;2023-12-20T13:48:43;2.47;;;0.67;;
17921;SDS011;9086;50.966;3.144;2023-12-20T13:51:10;0.10;;;0.10;;
17921;SDS011;9086;50.966;3.144;2023-12-20T13:53:35;0.07;;;0.07;;
17921;SDS011;9086;50.966;3.144;2023-12-20T13:56:03;0.30;;;0.30;;
17921;SDS011;9086;50.966;3.144;2023-12-20T13:58:29;0.00;;;0.00;;
17921;SDS011;9086;50.966;3.144;2023-12-20T14:00:55;0.40;;;0.10;;
17921;SDS011;9086;50.966;3.144;2023-12-20T14:03:21;3.40;;;0.73;;
17921;SDS011;9086;50.966;3.144;2023-12-20T14:05:47;0.10;;;0.10;;
17921;SDS011;9086;50.966;3.144;2023-12-20T14:08:13;0.20;;;0.20;;
17921;SDS011;9086;50.966;3.144;2023-12-20T14:10:39;0.10;;;0.10;;
17921;SDS011;9086;50.966;3.144;2023-12-20T14:13:08;0.63;;;0.63;;
17921;SDS011;9086;50.966;3.144;2023-12-20T14:15:34;8.37;;;0.37;;
17921;SDS011;9086;50.966;3.144;2023-12-20T14:18:05;3.50;;;0.53;;
17921;SDS011;9086;50.966;3.144;2023-12-20T14:20:31;0.00;;;0.00;;
17921;SDS011;9086;50.966;3.144;2023-12-20T14:22:59;1.50;;;0.60;;
17921;SDS011;9086;50.966;3.144;2023-12-20T14:25:25;2.53;;;2.37;;
17921;SDS011;9086;50.966;3.144;2023-12-20T14:27:51;0.10;;;0.10;;
17921;SDS011;9086;50.966;3.144;2023-12-20T14:30:17;2.70;;;0.87;;
17921;SDS011;9086;50.966;3.144;2023-12-20T14:32:43;0.20;;;0.20;;
17921;SDS011;9086;50.966;3.144;2023-12-20T14:35:09;0.20;;;0.20;;
17921;SDS011;9086;50.966;3.144;2023-12-20T14:37:36;0.37;;;0.37;;
17921;SDS011;9086;50.966;3.144;2023-12-20T14:40:05;0.30;;;0.30;;
17921;SDS011;9086;50.966;3.144;2023-12-20T14:42:33;3.60;;;1.50;;
17921;SDS011;9086;50.966;3.144;2023-12-20T14:45:00;0.00;;;0.00;;
17921;SDS011;9086;50.966;3.144;2023-12-20T14:47:26;0.20;;;0.20;;
17921;SDS011;9086;50.966;3.144;2023-12-20T14:49:52;0.20;;;0.20;;
17921;SDS011;9086;50.966;3.144;2023-12-20T14:52:18;0.10;;;0.10;;
17921;SDS011;9086;50.966;3.144;2023-12-20T14:54:44;0.00;;;0.00;;
17921;SDS011;9086;50.966;3.144;2023-12-20T14:57:10;0.10;;;0.10;;
17921;SDS011;9086;50.966;3.144;2023-12-20T14:59:36;0.50;;;0.50;;
17921;SDS011;9086;50.966;3.144;2023-12-20T15:02:02;0.00;;;0.00;;
17921;SDS011;9086;50.966;3.144;2023-12-20T15:04:30;0.00;;;0.00;;